Dalton, New Hampshire
Current Conditions -  °F | °C
As of 1:52 PM on Saturday 25 Oct 2014 (Local Time) from KHIE Reporting Station
Clear Clear  
Wind Chill: 13°   Ceiling: Unl
Heat Index: 13°   Visibility: 10mi
Dew Point:   Wind: 3mph
Humidity: 51%   Direction: 240°WSW
Pressure: 29.62"   Gusts: NA
Location:  44.3374°N, 71.528°W
Report Text: KHIE 251752Z AUTO 24003KT 10SM CLR 13/03 A2962 RMK AO2 SLP035 T01280028 10139 20000 58027
Loading
Personal Weather Stations






























Interactive Weather Map
Tropical Storm Tracking
New forecast layout! Learn more

10-Day Weather Forecast

Advertisements
Track Severe Weather on mobile